Thala, Tunisia
Current Conditions -  °F | °C
As of 4:00 PM on Thursday 23 Oct 2014 (Local Time) from DABS Reporting Station
Few Clouds Few Clouds  
Wind Chill: 64°   Ceiling: Unl
Heat Index: 64°   Visibility: 6mi
Dew Point: 41°   Wind: 24mph
Humidity: 42%   Direction: 340°NNW
Pressure: 30.03"   Gusts: NA
Location:  35.58°N, 8.67°E
Report Text: DABS 231500Z 34021KT 9999 FEW040 18/05 Q1017
Loading
Personal Weather Stations






























Interactive Weather Map
Tropical Storm Tracking
New forecast layout! Learn more

10-Day Weather Forecast

Advertisements
Track Severe Weather on mobile